Wednesday, November 21, 2018, 10:42 AM GMT
Back to Local

CWPD, Parc Des Laurentid

Location: , , Canada Lat: 47.567
Local Time: 10:42 AM GMT (10:42 GMT) Lon: -71.233
Time Zone: GMT Elev: 2634 ft

Show me the last for .
Show Coded

Time T Td Feel RH Dir Speed Gust Alt SLP Vis Weather Sky Remarks
2018-11-21 10:00 10 8 1 92 210° 5 - - 29.75 0 None
2018-11-21 09:00 10 8 - 87 200° 2 - - 29.75 0 None
2018-11-21 08:00 11 8 3 87 200° 5 - - 29.77 0 None
2018-11-21 07:00 10 7 - 88 190° 1 - - 29.79 0 None
2018-11-21 06:00 11 7 - 82 - Calm - - 29.80 0 None
2018-11-21 05:00 10 7 - 87 - Calm - - 29.82 0 None
2018-11-21 04:00 10 7 - 86 210° 2 - - 29.83 0 None
2018-11-21 03:00 10 7 - 86 - Calm - - 29.85 0 None
2018-11-21 02:00 10 7 - 86 50° 1 - - 29.88 0 None
2018-11-21 01:00 10 7 - 86 40° 2 - - 29.90 0 None
2018-11-21 00:00 11 7 - 86 20° 1 - - 29.92 0 None
2018-11-20 23:00 11 8 - 85 70° 2 - - 29.92 0 None
2018-11-20 21:00 14 10 - 86 40° 2 - - 29.93 0 None
2018-11-20 20:00 14 10 - 83 50° 2 - - 29.93 0 None
2018-11-20 19:00 15 11 - 81 - Calm - - 29.94 0 None
2018-11-20 18:00 15 10 - 79 350° 2 - - 29.95 0 None
2018-11-20 17:00 13 9 - 82 330° 1 - - 29.97 0 None
2018-11-20 16:00 13 7 - 75 340° 2 - - 30.00 0 1-hr Precip Total: 0.04"
2018-11-20 14:00 7 4 - 86 10° 2 - - 30.02 0 None
2018-11-20 13:00 3 0 - 85 10° 1 - - 30.03 0 None
2018-11-20 12:00 4 1 - 87 360° 2 - - 30.03 0 None
2018-11-20 11:00 4 0 - 85 350° 2 - - 30.03 0 None

Support USWX by starting your Amazon purchase here.